Chester, Vermont
Current Conditions -  °F | °C
As of 12:54 AM on Wednesday 26 Nov 2014 (Local Time) from KVSF Reporting Station
Clear Clear  
Wind Chill: 37°   Ceiling: Unl
Heat Index: 40°   Visibility: 10mi
Dew Point: 26°   Wind: 5mph
Humidity: 58%   Direction: 210°SSW
Pressure: 30.12"   Gusts: NA
Location:  43.26°N, 72.6°W
Report Text: KVSF 260554Z AUTO 21004KT 10SM CLR 04/M03 A3012 RMK AO2 SLP204 T00441033 10050 21017 51021
Loading
Personal Weather Stations






























Interactive Weather Map New forecast layout! Learn more

10-Day Weather Forecast

Advertisements
Track Severe Weather on mobile